Hauptseite
METAR-TAF:

METAR-TAF

Flughäfen :

Stinson Municipal Airport

San Antonio, Texas, Vereinigte Staaten

Breite: 29-20-20N, Länge: 098-28-18W, Höhe: 175 m

Beobachtung

Neuester Wetterbericht von vor 29 Minuten, um 11:53 UTC
Windstille
Temperatur 2°C
Luftfeuchtigkeit 87%
Luftdruck 1023 hPa
Sichtweite: 16.1 km
Himmel klar

METAR: KSSF 161153Z AUTO 00000KT 10SM CLR 02/00 A3020 RMK AO2 SLP228 T00220000 10061 20022 53002 $

Zeit: 06:22 (12:22 UTC)

Prognose

Neuester Wetterbericht von vor 53 Minuten, um 11:29 UTC
Gültige Prognose vom 16 um 12 UTC bis 17 um 12 UTC
Wind 4 kt aus Süd/Südwest
Sichtweite: 10 km
Leicht bewölkt in der Höhe von 25000 ft

TAF: KSSF 161129Z 1612/1712 21004KT P6SM FEW250

Wetterbeobachtungen und Prognosen von mehr als 4000 Flughäfen (METAR und TAF Bericht).

Die verfügbaren Stationen werden durch gelbe und rote Markierungen auf der Karte dargestellt.

Führen Sie die Maus auf sie, um den Namen der Station zu sehen.

Darauf klicken, um die Beobachtung von Wetterbeobachtungen und Prognosen zu sehen.

Um die Karte zu ändern : klicken Sie auf den grünen Tasten mit einem schwarzen Kreuz Zum Vergrößern, auf den grünen Button mit einem Gedankenstrich zu verkleinern, oder auf die grünen Pfeile für benachbarte Karten.


METAR-TAF: